sensor_id;sensor_type;location;lat;lon;timestamp;P1;durP1;ratioP1;P2;durP2;ratioP2
37715;SDS011;23562;50.540;12.504;2022-08-01T00:01:33;5.05;;;4.18;;
37715;SDS011;23562;50.540;12.504;2022-08-01T00:03:58;6.72;;;4.20;;
37715;SDS011;23562;50.540;12.504;2022-08-01T00:06:23;6.15;;;4.40;;
37715;SDS011;23562;50.540;12.504;2022-08-01T00:08:48;4.57;;;4.17;;
37715;SDS011;23562;50.540;12.504;2022-08-01T00:11:14;6.87;;;4.20;;
37715;SDS011;23562;50.540;12.504;2022-08-01T00:13:39;5.13;;;4.20;;
37715;SDS011;23562;50.540;12.504;2022-08-01T00:16:05;5.43;;;4.50;;
37715;SDS011;23562;50.540;12.504;2022-08-01T00:18:30;5.07;;;4.25;;
37715;SDS011;23562;50.540;12.504;2022-08-01T00:20:55;4.65;;;4.20;;
37715;SDS011;23562;50.540;12.504;2022-08-01T00:23:21;4.73;;;4.10;;
37715;SDS011;23562;50.540;12.504;2022-08-01T00:25:46;4.63;;;4.23;;
37715;SDS011;23562;50.540;12.504;2022-08-01T00:28:11;7.50;;;4.43;;
37715;SDS011;23562;50.540;12.504;2022-08-01T00:30:38;6.43;;;4.28;;
37715;SDS011;23562;50.540;12.504;2022-08-01T00:33:03;5.28;;;3.78;;
37715;SDS011;23562;50.540;12.504;2022-08-01T00:35:28;3.83;;;3.40;;
37715;SDS011;23562;50.540;12.504;2022-08-01T00:37:54;5.13;;;3.78;;
37715;SDS011;23562;50.540;12.504;2022-08-01T00:40:19;6.97;;;3.77;;
37715;SDS011;23562;50.540;12.504;2022-08-01T00:42:44;5.53;;;3.60;;
37715;SDS011;23562;50.540;12.504;2022-08-01T00:45:10;4.53;;;3.27;;
37715;SDS011;23562;50.540;12.504;2022-08-01T00:47:36;6.65;;;3.80;;
37715;SDS011;23562;50.540;12.504;2022-08-01T00:50:03;4.15;;;3.22;;
37715;SDS011;23562;50.540;12.504;2022-08-01T00:52:29;3.92;;;3.40;;
37715;SDS011;23562;50.540;12.504;2022-08-01T00:54:55;5.43;;;3.83;;
37715;SDS011;23562;50.540;12.504;2022-08-01T00:57:20;4.13;;;3.20;;
37715;SDS011;23562;50.540;12.504;2022-08-01T00:59:46;4.95;;;3.40;;
37715;SDS011;23562;50.540;12.504;2022-08-01T01:02:11;3.97;;;3.38;;
37715;SDS011;23562;50.540;12.504;2022-08-01T01:04:37;4.10;;;3.38;;
37715;SDS011;23562;50.540;12.504;2022-08-01T01:09:54;5.45;;;3.50;;
37715;SDS011;23562;50.540;12.504;2022-08-01T01:17:57;4.13;;;3.33;;
37715;SDS011;23562;50.540;12.504;2022-08-01T01:20:32;6.10;;;3.53;;
37715;SDS011;23562;50.540;12.504;2022-08-01T01:23:06;4.55;;;3.30;;
37715;SDS011;23562;50.540;12.504;2022-08-01T01:25:44;3.50;;;3.20;;
37715;SDS011;23562;50.540;12.504;2022-08-01T01:28:20;4.05;;;3.65;;
37715;SDS011;23562;50.540;12.504;2022-08-01T01:30:55;4.32;;;3.30;;
37715;SDS011;23562;50.540;12.504;2022-08-01T01:33:22;3.58;;;3.28;;
37715;SDS011;23562;50.540;12.504;2022-08-01T01:35:51;3.80;;;3.20;;
37715;SDS011;23562;50.540;12.504;2022-08-01T01:40:53;5.25;;;3.35;;
37715;SDS011;23562;50.540;12.504;2022-08-01T01:43:20;5.60;;;3.50;;
37715;SDS011;23562;50.540;12.504;2022-08-01T01:45:48;5.03;;;3.58;;
37715;SDS011;23562;50.540;12.504;2022-08-01T01:48:15;5.22;;;3.40;;
37715;SDS011;23562;50.540;12.504;2022-08-01T01:50:43;5.15;;;3.70;;
37715;SDS011;23562;50.540;12.504;2022-08-01T01:53:12;4.88;;;3.47;;
37715;SDS011;23562;50.540;12.504;2022-08-01T01:55:40;4.55;;;3.90;;
37715;SDS011;23562;50.540;12.504;2022-08-01T01:58:08;4.97;;;3.97;;
37715;SDS011;23562;50.540;12.504;2022-08-01T02:00:37;5.68;;;3.75;;
37715;SDS011;23562;50.540;12.504;2022-08-01T02:03:02;4.35;;;3.60;;
37715;SDS011;23562;50.540;12.504;2022-08-01T02:05:30;4.30;;;3.70;;
37715;SDS011;23562;50.540;12.504;2022-08-01T02:07:59;4.55;;;4.15;;
37715;SDS011;23562;50.540;12.504;2022-08-01T02:10:26;5.25;;;4.00;;
37715;SDS011;23562;50.540;12.504;2022-08-01T02:12:52;3.88;;;3.58;;
37715;SDS011;23562;50.540;12.504;2022-08-01T02:15:18;7.22;;;3.65;;
37715;SDS011;23562;50.540;12.504;2022-08-01T02:17:46;6.43;;;3.70;;
37715;SDS011;23562;50.540;12.504;2022-08-01T02:20:13;4.20;;;3.80;;
37715;SDS011;23562;50.540;12.504;2022-08-01T02:22:41;6.15;;;3.92;;
37715;SDS011;23562;50.540;12.504;2022-08-01T02:27:52;5.57;;;3.83;;
37715;SDS011;23562;50.540;12.504;2022-08-01T02:30:25;4.28;;;3.85;;
37715;SDS011;23562;50.540;12.504;2022-08-01T02:32:53;4.35;;;3.70;;
37715;SDS011;23562;50.540;12.504;2022-08-01T02:35:27;4.10;;;3.70;;
37715;SDS011;23562;50.540;12.504;2022-08-01T02:37:55;4.57;;;3.78;;
37715;SDS011;23562;50.540;12.504;2022-08-01T02:40:23;6.20;;;3.88;;
37715;SDS011;23562;50.540;12.504;2022-08-01T02:42:51;4.47;;;4.05;;
37715;SDS011;23562;50.540;12.504;2022-08-01T02:45:18;3.80;;;3.50;;
37715;SDS011;23562;50.540;12.504;2022-08-01T02:47:45;6.68;;;4.45;;
37715;SDS011;23562;50.540;12.504;2022-08-01T02:50:13;4.57;;;4.18;;
37715;SDS011;23562;50.540;12.504;2022-08-01T02:52:39;5.60;;;4.43;;
37715;SDS011;23562;50.540;12.504;2022-08-01T02:55:06;5.47;;;4.05;;
37715;SDS011;23562;50.540;12.504;2022-08-01T02:57:34;5.00;;;4.40;;
37715;SDS011;23562;50.540;12.504;2022-08-01T03:00:02;6.47;;;4.32;;
37715;SDS011;23562;50.540;12.504;2022-08-01T03:02:29;6.78;;;4.32;;
37715;SDS011;23562;50.540;12.504;2022-08-01T03:04:56;6.38;;;4.93;;
37715;SDS011;23562;50.540;12.504;2022-08-01T03:07:22;7.32;;;5.03;;
37715;SDS011;23562;50.540;12.504;2022-08-01T03:09:48;6.07;;;4.57;;
37715;SDS011;23562;50.540;12.504;2022-08-01T03:12:15;6.05;;;4.25;;
37715;SDS011;23562;50.540;12.504;2022-08-01T03:14:44;7.00;;;4.50;;
37715;SDS011;23562;50.540;12.504;2022-08-01T03:17:11;5.20;;;4.70;;
37715;SDS011;23562;50.540;12.504;2022-08-01T03:19:38;4.97;;;4.47;;
37715;SDS011;23562;50.540;12.504;2022-08-01T03:22:05;5.35;;;4.75;;
37715;SDS011;23562;50.540;12.504;2022-08-01T03:24:33;5.47;;;4.83;;
37715;SDS011;23562;50.540;12.504;2022-08-01T03:27:00;5.22;;;4.72;;
37715;SDS011;23562;50.540;12.504;2022-08-01T03:29:27;5.53;;;4.65;;
37715;SDS011;23562;50.540;12.504;2022-08-01T03:31:54;7.22;;;4.63;;
37715;SDS011;23562;50.540;12.504;2022-08-01T03:34:21;7.13;;;4.82;;
37715;SDS011;23562;50.540;12.504;2022-08-01T03:36:53;5.75;;;4.82;;
37715;SDS011;23562;50.540;12.504;2022-08-01T03:39:25;7.65;;;5.13;;
37715;SDS011;23562;50.540;12.504;2022-08-01T03:41:58;6.03;;;5.35;;
37715;SDS011;23562;50.540;12.504;2022-08-01T03:44:31;5.82;;;5.05;;
37715;SDS011;23562;50.540;12.504;2022-08-01T03:46:59;5.75;;;5.13;;
37715;SDS011;23562;50.540;12.504;2022-08-01T03:49:30;7.93;;;5.40;;
37715;SDS011;23562;50.540;12.504;2022-08-01T03:51:58;9.20;;;5.13;;
37715;SDS011;23562;50.540;12.504;2022-08-01T03:54:28;10.30;;;5.50;;
37715;SDS011;23562;50.540;12.504;2022-08-01T03:56:58;7.38;;;6.15;;
37715;SDS011;23562;50.540;12.504;2022-08-01T03:59:25;9.88;;;5.50;;
37715;SDS011;23562;50.540;12.504;2022-08-01T04:01:51;7.07;;;5.97;;
37715;SDS011;23562;50.540;12.504;2022-08-01T04:04:17;6.35;;;5.43;;
37715;SDS011;23562;50.540;12.504;2022-08-01T04:06:43;6.20;;;5.43;;
37715;SDS011;23562;50.540;12.504;2022-08-01T04:09:09;6.03;;;5.38;;
37715;SDS011;23562;50.540;12.504;2022-08-01T04:11:36;6.20;;;5.60;;
37715;SDS011;23562;50.540;12.504;2022-08-01T04:14:01;8.40;;;5.38;;
37715;SDS011;23562;50.540;12.504;2022-08-01T04:16:27;5.82;;;5.22;;
37715;SDS011;23562;50.540;12.504;2022-08-01T04:18:52;6.30;;;5.60;;
37715;SDS011;23562;50.540;12.504;2022-08-01T04:21:18;8.07;;;6.00;;
37715;SDS011;23562;50.540;12.504;2022-08-01T04:23:47;9.00;;;5.78;;
37715;SDS011;23562;50.540;12.504;2022-08-01T04:26:16;9.43;;;6.00;;
37715;SDS011;23562;50.540;12.504;2022-08-01T04:28:43;6.30;;;5.47;;
37715;SDS011;23562;50.540;12.504;2022-08-01T04:31:09;7.53;;;5.43;;
37715;SDS011;23562;50.540;12.504;2022-08-01T04:33:38;6.00;;;5.40;;
37715;SDS011;23562;50.540;12.504;2022-08-01T04:36:05;6.78;;;5.97;;
37715;SDS011;23562;50.540;12.504;2022-08-01T04:38:33;8.40;;;5.38;;
37715;SDS011;23562;50.540;12.504;2022-08-01T04:41:01;5.72;;;5.07;;
37715;SDS011;23562;50.540;12.504;2022-08-01T04:43:27;5.85;;;5.35;;
37715;SDS011;23562;50.540;12.504;2022-08-01T04:45:52;6.05;;;5.45;;
37715;SDS011;23562;50.540;12.504;2022-08-01T04:48:20;6.15;;;5.55;;
37715;SDS011;23562;50.540;12.504;2022-08-01T04:50:47;6.65;;;5.15;;
37715;SDS011;23562;50.540;12.504;2022-08-01T04:53:19;5.50;;;4.70;;
37715;SDS011;23562;50.540;12.504;2022-08-01T04:55:46;5.75;;;5.10;;
37715;SDS011;23562;50.540;12.504;2022-08-01T04:58:12;5.70;;;4.88;;
37715;SDS011;23562;50.540;12.504;2022-08-01T05:00:37;5.75;;;5.10;;
37715;SDS011;23562;50.540;12.504;2022-08-01T05:03:03;6.95;;;4.95;;
37715;SDS011;23562;50.540;12.504;2022-08-01T05:05:28;5.00;;;4.45;;
37715;SDS011;23562;50.540;12.504;2022-08-01T05:07:55;7.65;;;5.50;;
37715;SDS011;23562;50.540;12.504;2022-08-01T05:10:20;7.65;;;5.15;;
37715;SDS011;23562;50.540;12.504;2022-08-01T05:12:46;5.70;;;4.83;;
37715;SDS011;23562;50.540;12.504;2022-08-01T05:15:11;6.53;;;4.60;;
37715;SDS011;23562;50.540;12.504;2022-08-01T05:17:36;5.45;;;4.72;;
37715;SDS011;23562;50.540;12.504;2022-08-01T05:20:02;6.10;;;5.13;;
37715;SDS011;23562;50.540;12.504;2022-08-01T05:22:27;6.32;;;5.50;;
37715;SDS011;23562;50.540;12.504;2022-08-01T05:24:52;6.60;;;5.13;;
37715;SDS011;23562;50.540;12.504;2022-08-01T05:27:18;5.97;;;5.20;;
37715;SDS011;23562;50.540;12.504;2022-08-01T05:29:44;5.90;;;4.70;;
37715;SDS011;23562;50.540;12.504;2022-08-01T05:32:09;5.20;;;4.80;;
37715;SDS011;23562;50.540;12.504;2022-08-01T05:34:34;5.65;;;5.13;;
37715;SDS011;23562;50.540;12.504;2022-08-01T05:37:00;7.28;;;5.45;;
37715;SDS011;23562;50.540;12.504;2022-08-01T05:39:25;7.50;;;5.45;;
37715;SDS011;23562;50.540;12.504;2022-08-01T05:41:50;5.65;;;5.13;;
37715;SDS011;23562;50.540;12.504;2022-08-01T05:44:16;8.55;;;5.55;;
37715;SDS011;23562;50.540;12.504;2022-08-01T05:46:41;8.37;;;5.77;;
37715;SDS011;23562;50.540;12.504;2022-08-01T05:49:06;7.13;;;5.35;;
37715;SDS011;23562;50.540;12.504;2022-08-01T05:51:32;7.97;;;5.90;;
37715;SDS011;23562;50.540;12.504;2022-08-01T05:53:58;6.63;;;5.97;;
37715;SDS011;23562;50.540;12.504;2022-08-01T05:56:23;6.55;;;5.85;;
37715;SDS011;23562;50.540;12.504;2022-08-01T05:58:49;6.65;;;5.35;;
37715;SDS011;23562;50.540;12.504;2022-08-01T06:01:15;6.60;;;5.88;;
37715;SDS011;23562;50.540;12.504;2022-08-01T06:03:41;8.30;;;6.07;;
37715;SDS011;23562;50.540;12.504;2022-08-01T06:06:06;8.98;;;6.40;;
37715;SDS011;23562;50.540;12.504;2022-08-01T06:08:32;6.68;;;6.07;;
37715;SDS011;23562;50.540;12.504;2022-08-01T06:10:57;11.18;;;6.55;;
37715;SDS011;23562;50.540;12.504;2022-08-01T06:13:23;8.20;;;5.93;;
37715;SDS011;23562;50.540;12.504;2022-08-01T06:15:48;8.00;;;6.67;;
37715;SDS011;23562;50.540;12.504;2022-08-01T06:18:14;9.20;;;6.32;;
37715;SDS011;23562;50.540;12.504;2022-08-01T06:20:39;8.48;;;6.72;;
37715;SDS011;23562;50.540;12.504;2022-08-01T06:23:04;7.50;;;6.78;;
37715;SDS011;23562;50.540;12.504;2022-08-01T06:25:30;7.13;;;6.53;;
37715;SDS011;23562;50.540;12.504;2022-08-01T06:27:55;7.50;;;6.28;;
37715;SDS011;23562;50.540;12.504;2022-08-01T06:30:21;6.68;;;6.07;;
37715;SDS011;23562;50.540;12.504;2022-08-01T06:32:46;7.78;;;6.65;;
37715;SDS011;23562;50.540;12.504;2022-08-01T06:35:12;7.78;;;6.97;;
37715;SDS011;23562;50.540;12.504;2022-08-01T06:37:37;7.93;;;6.75;;
37715;SDS011;23562;50.540;12.504;2022-08-01T06:40:03;7.57;;;6.57;;
37715;SDS011;23562;50.540;12.504;2022-08-01T06:42:31;7.80;;;7.10;;
37715;SDS011;23562;50.540;12.504;2022-08-01T06:45:00;7.18;;;6.00;;
37715;SDS011;23562;50.540;12.504;2022-08-01T06:47:32;7.65;;;6.95;;
37715;SDS011;23562;50.540;12.504;2022-08-01T06:49:58;7.15;;;6.45;;
37715;SDS011;23562;50.540;12.504;2022-08-01T06:52:24;8.52;;;6.20;;
37715;SDS011;23562;50.540;12.504;2022-08-01T06:54:49;8.00;;;6.70;;
37715;SDS011;23562;50.540;12.504;2022-08-01T06:57:14;8.68;;;6.22;;
37715;SDS011;23562;50.540;12.504;2022-08-01T06:59:39;7.10;;;6.40;;
37715;SDS011;23562;50.540;12.504;2022-08-01T07:02:05;7.10;;;5.78;;
37715;SDS011;23562;50.540;12.504;2022-08-01T07:04:31;8.45;;;6.05;;
37715;SDS011;23562;50.540;12.504;2022-08-01T07:06:57;7.70;;;5.80;;
37715;SDS011;23562;50.540;12.504;2022-08-01T07:09:22;6.63;;;5.90;;
37715;SDS011;23562;50.540;12.504;2022-08-01T07:11:47;6.40;;;5.80;;
37715;SDS011;23562;50.540;12.504;2022-08-01T07:14:13;6.97;;;6.18;;
37715;SDS011;23562;50.540;12.504;2022-08-01T07:16:38;7.10;;;6.40;;
37715;SDS011;23562;50.540;12.504;2022-08-01T07:19:03;6.82;;;6.13;;
37715;SDS011;23562;50.540;12.504;2022-08-01T07:21:29;7.18;;;5.85;;
37715;SDS011;23562;50.540;12.504;2022-08-01T07:23:54;6.23;;;5.63;;
37715;SDS011;23562;50.540;12.504;2022-08-01T07:26:19;7.20;;;6.15;;
37715;SDS011;23562;50.540;12.504;2022-08-01T07:28:44;6.30;;;5.70;;
37715;SDS011;23562;50.540;12.504;2022-08-01T07:31:09;6.37;;;5.20;;
37715;SDS011;23562;50.540;12.504;2022-08-01T07:33:35;5.40;;;4.40;;
37715;SDS011;23562;50.540;12.504;2022-08-01T07:36:00;4.90;;;4.50;;
37715;SDS011;23562;50.540;12.504;2022-08-01T07:38:25;5.20;;;4.47;;
37715;SDS011;23562;50.540;12.504;2022-08-01T07:40:51;6.73;;;4.80;;
37715;SDS011;23562;50.540;12.504;2022-08-01T07:43:16;5.70;;;4.03;;
37715;SDS011;23562;50.540;12.504;2022-08-01T07:45:41;7.27;;;4.80;;
37715;SDS011;23562;50.540;12.504;2022-08-01T07:48:07;4.57;;;4.18;;
37715;SDS011;23562;50.540;12.504;2022-08-01T07:50:32;7.18;;;4.53;;
37715;SDS011;23562;50.540;12.504;2022-08-01T07:52:58;4.97;;;4.47;;
37715;SDS011;23562;50.540;12.504;2022-08-01T07:55:24;6.55;;;4.07;;
37715;SDS011;23562;50.540;12.504;2022-08-01T07:57:49;6.15;;;4.20;;
37715;SDS011;23562;50.540;12.504;2022-08-01T08:00:15;4.63;;;4.23;;
37715;SDS011;23562;50.540;12.504;2022-08-01T08:02:40;4.53;;;4.13;;
37715;SDS011;23562;50.540;12.504;2022-08-01T08:05:06;4.88;;;4.10;;
37715;SDS011;23562;50.540;12.504;2022-08-01T08:07:32;5.05;;;4.55;;
37715;SDS011;23562;50.540;12.504;2022-08-01T08:09:57;5.25;;;4.72;;
37715;SDS011;23562;50.540;12.504;2022-08-01T08:12:22;6.93;;;4.50;;
37715;SDS011;23562;50.540;12.504;2022-08-01T08:14:48;4.60;;;4.10;;
37715;SDS011;23562;50.540;12.504;2022-08-01T08:17:13;4.87;;;4.40;;
37715;SDS011;23562;50.540;12.504;2022-08-01T08:19:38;5.50;;;4.00;;
37715;SDS011;23562;50.540;12.504;2022-08-01T08:22:05;6.28;;;4.53;;
37715;SDS011;23562;50.540;12.504;2022-08-01T08:24:31;5.32;;;3.90;;
37715;SDS011;23562;50.540;12.504;2022-08-01T08:26:57;5.60;;;4.30;;
37715;SDS011;23562;50.540;12.504;2022-08-01T08:29:24;4.53;;;4.13;;
37715;SDS011;23562;50.540;12.504;2022-08-01T08:31:51;4.65;;;4.25;;
37715;SDS011;23562;50.540;12.504;2022-08-01T08:34:17;6.32;;;4.32;;
37715;SDS011;23562;50.540;12.504;2022-08-01T08:36:42;6.15;;;4.10;;
37715;SDS011;23562;50.540;12.504;2022-08-01T08:39:08;4.88;;;4.38;;
37715;SDS011;23562;50.540;12.504;2022-08-01T08:41:33;5.30;;;4.80;;
37715;SDS011;23562;50.540;12.504;2022-08-01T08:44:03;5.65;;;4.57;;
37715;SDS011;23562;50.540;12.504;2022-08-01T08:46:29;5.85;;;4.60;;
37715;SDS011;23562;50.540;12.504;2022-08-01T08:48:57;4.93;;;4.25;;
37715;SDS011;23562;50.540;12.504;2022-08-01T08:51:25;6.95;;;4.50;;
37715;SDS011;23562;50.540;12.504;2022-08-01T08:53:53;6.00;;;4.45;;
37715;SDS011;23562;50.540;12.504;2022-08-01T08:56:20;7.60;;;5.28;;
37715;SDS011;23562;50.540;12.504;2022-08-01T08:58:48;5.65;;;5.15;;
37715;SDS011;23562;50.540;12.504;2022-08-01T09:01:13;6.10;;;5.50;;
37715;SDS011;23562;50.540;12.504;2022-08-01T09:03:39;5.30;;;4.60;;
37715;SDS011;23562;50.540;12.504;2022-08-01T09:06:05;4.80;;;4.30;;
37715;SDS011;23562;50.540;12.504;2022-08-01T09:08:30;5.07;;;4.57;;
37715;SDS011;23562;50.540;12.504;2022-08-01T09:10:55;5.53;;;4.38;;
37715;SDS011;23562;50.540;12.504;2022-08-01T09:13:21;4.05;;;3.72;;
37715;SDS011;23562;50.540;12.504;2022-08-01T09:15:47;4.95;;;4.40;;
37715;SDS011;23562;50.540;12.504;2022-08-01T09:18:25;4.53;;;4.13;;
37715;SDS011;23562;50.540;12.504;2022-08-01T09:21:02;4.25;;;3.85;;
37715;SDS011;23562;50.540;12.504;2022-08-01T09:23:37;4.65;;;4.15;;
37715;SDS011;23562;50.540;12.504;2022-08-01T09:26:07;5.07;;;3.92;;
37715;SDS011;23562;50.540;12.504;2022-08-01T09:28:33;6.20;;;3.78;;
37715;SDS011;23562;50.540;12.504;2022-08-01T09:30:58;3.95;;;3.60;;
37715;SDS011;23562;50.540;12.504;2022-08-01T09:34:04;4.32;;;3.90;;
37715;SDS011;23562;50.540;12.504;2022-08-01T09:36:24;4.40;;;3.88;;
37715;SDS011;23562;50.540;12.504;2022-08-01T09:38:52;3.40;;;3.15;;
37715;SDS011;23562;50.540;12.504;2022-08-01T09:41:31;3.13;;;2.83;;
37715;SDS011;23562;50.540;12.504;2022-08-01T09:43:57;5.32;;;3.00;;
37715;SDS011;23562;50.540;12.504;2022-08-01T09:46:23;3.35;;;2.65;;
37715;SDS011;23562;50.540;12.504;2022-08-01T09:48:59;5.88;;;2.55;;
37715;SDS011;23562;50.540;12.504;2022-08-01T09:51:36;3.08;;;2.60;;
37715;SDS011;23562;50.540;12.504;2022-08-01T09:54:03;5.75;;;2.60;;
37715;SDS011;23562;50.540;12.504;2022-08-01T09:56:35;4.57;;;2.70;;
37715;SDS011;23562;50.540;12.504;2022-08-01T09:59:02;5.40;;;3.58;;
37715;SDS011;23562;50.540;12.504;2022-08-01T10:01:48;6.28;;;2.88;;
37715;SDS011;23562;50.540;12.504;2022-08-01T10:04:18;3.50;;;2.72;;
37715;SDS011;23562;50.540;12.504;2022-08-01T10:06:46;5.60;;;3.50;;
37715;SDS011;23562;50.540;12.504;2022-08-01T10:09:31;4.00;;;3.40;;
37715;SDS011;23562;50.540;12.504;2022-08-01T10:11:58;4.53;;;3.28;;
37715;SDS011;23562;50.540;12.504;2022-08-01T10:14:25;5.20;;;3.75;;
37715;SDS011;23562;50.540;12.504;2022-08-01T10:16:52;5.05;;;2.88;;
37715;SDS011;23562;50.540;12.504;2022-08-01T10:19:21;3.05;;;2.58;;
37715;SDS011;23562;50.540;12.504;2022-08-01T10:21:48;4.10;;;3.28;;
37715;SDS011;23562;50.540;12.504;2022-08-01T10:24:16;4.25;;;3.10;;
37715;SDS011;23562;50.540;12.504;2022-08-01T10:26:42;4.80;;;3.20;;
37715;SDS011;23562;50.540;12.504;2022-08-01T10:29:09;3.88;;;2.53;;
37715;SDS011;23562;50.540;12.504;2022-08-01T10:31:36;2.53;;;2.30;;
37715;SDS011;23562;50.540;12.504;2022-08-01T10:34:02;2.65;;;2.42;;
37715;SDS011;23562;50.540;12.504;2022-08-01T10:36:29;4.30;;;2.15;;
37715;SDS011;23562;50.540;12.504;2022-08-01T10:38:56;2.05;;;1.80;;
37715;SDS011;23562;50.540;12.504;2022-08-01T10:41:22;1.40;;;1.30;;
37715;SDS011;23562;50.540;12.504;2022-08-01T10:43:49;1.77;;;1.30;;
37715;SDS011;23562;50.540;12.504;2022-08-01T10:46:14;1.38;;;1.02;;
37715;SDS011;23562;50.540;12.504;2022-08-01T10:51:27;1.10;;;1.00;;
37715;SDS011;23562;50.540;12.504;2022-08-01T10:53:53;1.20;;;1.10;;
37715;SDS011;23562;50.540;12.504;2022-08-01T10:56:19;1.13;;;1.00;;
37715;SDS011;23562;50.540;12.504;2022-08-01T10:58:48;1.35;;;1.00;;
37715;SDS011;23562;50.540;12.504;2022-08-01T11:03:39;1.20;;;0.90;;
37715;SDS011;23562;50.540;12.504;2022-08-01T11:06:05;2.05;;;0.90;;
37715;SDS011;23562;50.540;12.504;2022-08-01T11:08:31;1.55;;;1.00;;
37715;SDS011;23562;50.540;12.504;2022-08-01T11:11:02;0.90;;;0.90;;
37715;SDS011;23562;50.540;12.504;2022-08-01T11:14:11;2.80;;;0.93;;
37715;SDS011;23562;50.540;12.504;2022-08-01T11:16:32;1.10;;;1.00;;
37715;SDS011;23562;50.540;12.504;2022-08-01T11:18:59;0.90;;;0.90;;
37715;SDS011;23562;50.540;12.504;2022-08-01T11:24:54;1.10;;;1.02;;
37715;SDS011;23562;50.540;12.504;2022-08-01T11:27:26;1.35;;;1.23;;
37715;SDS011;23562;50.540;12.504;2022-08-01T11:30:21;2.60;;;1.35;;
37715;SDS011;23562;50.540;12.504;2022-08-01T11:32:50;1.42;;;1.30;;
37715;SDS011;23562;50.540;12.504;2022-08-01T11:35:23;1.30;;;1.20;;
37715;SDS011;23562;50.540;12.504;2022-08-01T11:37:51;1.40;;;1.30;;
37715;SDS011;23562;50.540;12.504;2022-08-01T11:40:27;1.85;;;1.20;;
37715;SDS011;23562;50.540;12.504;2022-08-01T11:45:50;1.20;;;1.10;;
37715;SDS011;23562;50.540;12.504;2022-08-01T11:48:25;1.08;;;0.98;;
37715;SDS011;23562;50.540;12.504;2022-08-01T11:50:51;1.30;;;1.20;;
37715;SDS011;23562;50.540;12.504;2022-08-01T11:53:20;1.63;;;1.30;;
37715;SDS011;23562;50.540;12.504;2022-08-01T11:55:46;4.93;;;1.33;;
37715;SDS011;23562;50.540;12.504;2022-08-01T11:58:16;1.30;;;1.20;;
37715;SDS011;23562;50.540;12.504;2022-08-01T12:00:52;1.90;;;1.30;;
37715;SDS011;23562;50.540;12.504;2022-08-01T12:03:29;1.20;;;1.10;;
37715;SDS011;23562;50.540;12.504;2022-08-01T12:05:57;1.35;;;1.20;;
37715;SDS011;23562;50.540;12.504;2022-08-01T12:08:26;0.88;;;0.88;;
37715;SDS011;23562;50.540;12.504;2022-08-01T12:10:52;1.27;;;0.95;;
37715;SDS011;23562;50.540;12.504;2022-08-01T12:13:18;1.63;;;1.10;;
37715;SDS011;23562;50.540;12.504;2022-08-01T12:15:44;1.38;;;1.05;;
37715;SDS011;23562;50.540;12.504;2022-08-01T12:18:10;1.30;;;1.10;;
37715;SDS011;23562;50.540;12.504;2022-08-01T12:20:36;1.40;;;1.00;;
37715;SDS011;23562;50.540;12.504;2022-08-01T12:23:07;1.33;;;1.13;;
37715;SDS011;23562;50.540;12.504;2022-08-01T12:25:35;2.55;;;1.10;;
37715;SDS011;23562;50.540;12.504;2022-08-01T12:28:02;1.75;;;0.98;;
37715;SDS011;23562;50.540;12.504;2022-08-01T12:30:29;1.30;;;1.20;;
37715;SDS011;23562;50.540;12.504;2022-08-01T12:32:56;3.42;;;1.23;;
37715;SDS011;23562;50.540;12.504;2022-08-01T12:35:23;1.33;;;1.23;;
37715;SDS011;23562;50.540;12.504;2022-08-01T12:37:51;1.30;;;1.20;;
37715;SDS011;23562;50.540;12.504;2022-08-01T12:40:19;1.08;;;0.98;;
37715;SDS011;23562;50.540;12.504;2022-08-01T12:42:48;2.13;;;1.10;;
37715;SDS011;23562;50.540;12.504;2022-08-01T12:45:16;1.25;;;1.15;;
37715;SDS011;23562;50.540;12.504;2022-08-01T12:47:43;2.25;;;1.20;;
37715;SDS011;23562;50.540;12.504;2022-08-01T12:50:11;1.40;;;1.30;;
37715;SDS011;23562;50.540;12.504;2022-08-01T12:52:39;1.52;;;1.42;;
37715;SDS011;23562;50.540;12.504;2022-08-01T12:55:15;1.63;;;1.20;;
37715;SDS011;23562;50.540;12.504;2022-08-01T12:57:43;3.55;;;1.60;;
37715;SDS011;23562;50.540;12.504;2022-08-01T13:02:35;2.90;;;1.42;;
37715;SDS011;23562;50.540;12.504;2022-08-01T13:05:01;2.47;;;1.35;;
37715;SDS011;23562;50.540;12.504;2022-08-01T13:07:37;1.20;;;1.10;;
37715;SDS011;23562;50.540;12.504;2022-08-01T13:10:06;1.70;;;1.48;;
37715;SDS011;23562;50.540;12.504;2022-08-01T13:12:32;1.55;;;1.20;;
37715;SDS011;23562;50.540;12.504;2022-08-01T13:14:57;3.17;;;1.40;;
37715;SDS011;23562;50.540;12.504;2022-08-01T13:17:29;2.25;;;1.42;;
37715;SDS011;23562;50.540;12.504;2022-08-01T13:20:00;1.80;;;1.42;;
37715;SDS011;23562;50.540;12.504;2022-08-01T13:22:37;4.13;;;1.58;;
37715;SDS011;23562;50.540;12.504;2022-08-01T13:25:10;2.65;;;1.48;;
37715;SDS011;23562;50.540;12.504;2022-08-01T13:27:36;3.67;;;1.63;;
37715;SDS011;23562;50.540;12.504;2022-08-01T13:30:14;4.80;;;1.80;;
37715;SDS011;23562;50.540;12.504;2022-08-01T13:32:41;4.38;;;1.92;;
37715;SDS011;23562;50.540;12.504;2022-08-01T13:35:09;1.92;;;1.83;;
37715;SDS011;23562;50.540;12.504;2022-08-01T13:37:37;3.60;;;2.00;;
37715;SDS011;23562;50.540;12.504;2022-08-01T13:40:03;3.78;;;1.80;;
37715;SDS011;23562;50.540;12.504;2022-08-01T13:42:29;3.10;;;1.80;;
37715;SDS011;23562;50.540;12.504;2022-08-01T13:44:54;3.08;;;1.60;;
37715;SDS011;23562;50.540;12.504;2022-08-01T13:47:19;2.28;;;1.55;;
37715;SDS011;23562;50.540;12.504;2022-08-01T13:49:45;2.78;;;1.60;;
37715;SDS011;23562;50.540;12.504;2022-08-01T13:52:10;1.90;;;1.60;;
37715;SDS011;23562;50.540;12.504;2022-08-01T13:54:35;1.95;;;1.80;;
37715;SDS011;23562;50.540;12.504;2022-08-01T13:57:01;4.97;;;1.60;;
37715;SDS011;23562;50.540;12.504;2022-08-01T13:59:27;4.68;;;1.65;;
37715;SDS011;23562;50.540;12.504;2022-08-01T14:01:52;1.88;;;1.67;;
37715;SDS011;23562;50.540;12.504;2022-08-01T14:04:18;4.00;;;1.67;;
37715;SDS011;23562;50.540;12.504;2022-08-01T14:06:43;6.03;;;1.80;;
37715;SDS011;23562;50.540;12.504;2022-08-01T14:09:09;1.67;;;1.57;;
37715;SDS011;23562;50.540;12.504;2022-08-01T14:11:34;3.92;;;1.73;;
37715;SDS011;23562;50.540;12.504;2022-08-01T14:13:59;1.93;;;1.63;;
37715;SDS011;23562;50.540;12.504;2022-08-01T14:16:25;2.00;;;1.80;;
37715;SDS011;23562;50.540;12.504;2022-08-01T14:18:50;2.35;;;1.58;;
37715;SDS011;23562;50.540;12.504;2022-08-01T14:21:15;3.30;;;1.80;;
37715;SDS011;23562;50.540;12.504;2022-08-01T14:23:41;2.83;;;1.63;;
37715;SDS011;23562;50.540;12.504;2022-08-01T14:26:09;1.50;;;1.40;;
37715;SDS011;23562;50.540;12.504;2022-08-01T14:28:35;2.45;;;1.50;;
37715;SDS011;23562;50.540;12.504;2022-08-01T14:31:01;2.10;;;1.77;;
37715;SDS011;23562;50.540;12.504;2022-08-01T14:33:26;2.17;;;1.25;;
37715;SDS011;23562;50.540;12.504;2022-08-01T14:35:52;2.42;;;1.50;;
37715;SDS011;23562;50.540;12.504;2022-08-01T14:38:17;2.13;;;1.60;;
37715;SDS011;23562;50.540;12.504;2022-08-01T14:40:43;2.38;;;1.50;;
37715;SDS011;23562;50.540;12.504;2022-08-01T14:43:08;2.58;;;1.27;;
37715;SDS011;23562;50.540;12.504;2022-08-01T14:45:34;2.03;;;1.40;;
37715;SDS011;23562;50.540;12.504;2022-08-01T14:47:59;1.50;;;1.40;;
37715;SDS011;23562;50.540;12.504;2022-08-01T14:50:25;1.47;;;1.20;;
37715;SDS011;23562;50.540;12.504;2022-08-01T14:52:52;1.45;;;1.20;;
37715;SDS011;23562;50.540;12.504;2022-08-01T14:55:18;2.85;;;1.25;;
37715;SDS011;23562;50.540;12.504;2022-08-01T14:57:48;1.67;;;1.33;;
37715;SDS011;23562;50.540;12.504;2022-08-01T15:00:13;2.65;;;1.40;;
37715;SDS011;23562;50.540;12.504;2022-08-01T15:02:39;1.92;;;1.20;;